createdAt,value
2019-02-22T00:02:51.683Z,5.50
2019-02-22T00:12:57.285Z,5.50
2019-02-22T00:23:02.774Z,5.50
2019-02-22T00:33:08.272Z,5.50
2019-02-22T00:43:13.754Z,5.50
2019-02-22T00:53:19.235Z,5.50
2019-02-22T01:03:24.736Z,5.50
2019-02-22T01:13:30.350Z,5.60
2019-02-22T01:23:35.915Z,5.80
2019-02-22T01:33:41.838Z,5.70
2019-02-22T01:43:47.419Z,6.00
2019-02-22T01:53:54.085Z,5.80
2019-02-22T02:03:59.768Z,6.10
2019-02-22T02:14:05.344Z,5.80
2019-02-22T02:24:10.885Z,6.10
2019-02-22T02:34:16.399Z,6.00
2019-02-22T02:44:22.111Z,6.00
2019-02-22T02:54:27.847Z,6.10
2019-02-22T03:04:33.311Z,6.10
2019-02-22T03:14:39.175Z,6.20
2019-02-22T03:24:44.720Z,6.20
2019-02-22T03:34:50.292Z,6.20
2019-02-22T03:44:55.776Z,6.20
2019-02-22T03:55:01.474Z,6.20
2019-02-22T04:05:08.633Z,6.30
2019-02-22T04:15:14.112Z,6.30
2019-02-22T04:25:23.311Z,6.40
2019-02-22T04:35:28.889Z,6.60
2019-02-22T04:45:34.383Z,6.40
2019-02-22T04:55:39.933Z,6.40
2019-02-22T05:05:45.671Z,6.40
2019-02-22T05:15:51.191Z,6.20
2019-02-22T05:26:16.073Z,5.60
2019-02-22T05:36:21.980Z,5.30
2019-02-22T05:46:27.492Z,5.00
2019-02-22T05:56:39.948Z,5.00
2019-02-22T06:06:54.397Z,4.80
2019-02-22T06:16:59.887Z,4.50
2019-02-22T06:27:06.426Z,4.00
2019-02-22T06:37:11.878Z,3.40
2019-02-22T06:47:17.351Z,3.00
2019-02-22T06:57:22.838Z,2.60
2019-02-22T07:07:28.322Z,2.30
2019-02-22T07:17:33.913Z,2.20
2019-02-22T07:27:39.377Z,1.90
2019-02-22T07:37:44.901Z,1.70
2019-02-22T07:47:50.436Z,1.60
2019-02-22T07:57:56.037Z,1.70
2019-02-22T08:08:01.494Z,1.70
2019-02-22T08:18:06.971Z,1.70
2019-02-22T08:28:12.439Z,1.50
2019-02-22T08:38:23.591Z,1.50
2019-02-22T08:48:30.371Z,1.20
2019-02-22T08:58:35.902Z,1.30
2019-02-22T09:08:41.365Z,1.20
2019-02-22T09:18:47.047Z,0.90
2019-02-22T09:28:55.408Z,0.70
2019-02-22T09:38:59.776Z,0.70
2019-02-22T09:49:05.362Z,0.60
2019-02-22T09:59:10.869Z,0.60
2019-02-22T10:09:16.365Z,0.80
2019-02-22T10:19:22.360Z,0.80
2019-02-22T10:29:28.906Z,1.10
2019-02-22T10:39:35.009Z,0.80
2019-02-22T10:49:40.640Z,1.70
2019-02-22T10:59:46.239Z,1.50
2019-02-22T11:09:52.795Z,2.60
2019-02-22T11:19:58.260Z,1.50
2019-02-22T11:30:03.770Z,1.60
2019-02-22T11:40:10.880Z,2.20
2019-02-22T11:50:16.567Z,2.00
2019-02-22T12:00:25.193Z,2.40
2019-02-22T12:10:30.847Z,2.90
2019-02-22T12:20:36.312Z,2.10
2019-02-22T12:30:41.913Z,2.70
2019-02-22T12:40:47.550Z,2.00
2019-02-22T12:50:53.168Z,2.30
2019-02-22T13:00:58.752Z,2.70
2019-02-22T13:11:04.518Z,3.00
2019-02-22T13:21:09.981Z,3.00
2019-02-22T13:31:15.469Z,2.90
2019-02-22T13:41:20.936Z,3.00
2019-02-22T13:51:26.403Z,2.80
2019-02-22T14:01:32.873Z,2.90
2019-02-22T14:11:38.544Z,3.10
2019-02-22T14:21:44.330Z,2.90
2019-02-22T14:31:50.140Z,2.70
2019-02-22T14:41:57.320Z,2.30
2019-02-22T14:52:02.886Z,2.50
2019-02-22T15:02:08.752Z,2.60
2019-02-22T15:12:14.642Z,2.00
2019-02-22T15:22:22.172Z,2.00
2019-02-22T15:32:27.846Z,1.90
2019-02-22T15:42:33.522Z,1.60
2019-02-22T15:52:39.311Z,1.30
2019-02-22T16:02:45.133Z,0.90
2019-02-22T16:12:50.940Z,0.30
2019-02-22T16:22:56.847Z,-0.30
2019-02-22T16:33:02.760Z,-0.40
2019-02-22T16:43:08.816Z,-0.60
2019-02-22T16:53:20.708Z,-0.90
2019-02-22T17:03:26.522Z,-1.00
2019-02-22T17:13:32.634Z,-1.20
2019-02-22T17:23:38.562Z,-1.30
2019-02-22T17:33:44.462Z,-1.40
2019-02-22T17:43:50.153Z,-1.50
2019-02-22T17:53:56.174Z,-1.60
2019-02-22T18:04:02.245Z,-1.60
2019-02-22T18:14:08.153Z,-1.80
2019-02-22T18:24:14.005Z,-2.00
2019-02-22T18:34:20.035Z,-2.10
2019-02-22T18:44:25.640Z,-2.20
2019-02-22T18:54:31.414Z,-2.30
2019-02-22T19:04:37.367Z,-2.30
2019-02-22T19:14:43.243Z,-2.50
2019-02-22T19:24:49.285Z,-2.60
2019-02-22T19:34:55.397Z,-2.70
2019-02-22T19:45:01.473Z,-2.80
2019-02-22T19:55:10.918Z,-2.90
2019-02-22T20:05:17.177Z,-3.00
2019-02-22T20:15:23.205Z,-3.10
2019-02-22T20:25:29.279Z,-3.10
2019-02-22T20:35:35.271Z,-3.10
2019-02-22T20:45:41.130Z,-3.00
2019-02-22T20:55:47.018Z,-3.10
2019-02-22T21:05:52.939Z,-3.30
2019-02-22T21:15:58.732Z,-3.60
2019-02-22T21:26:04.412Z,-3.60
2019-02-22T21:36:10.151Z,-3.60
2019-02-22T21:46:15.913Z,-3.60
2019-02-22T21:56:21.645Z,-3.80
2019-02-22T22:06:27.365Z,-3.70
2019-02-22T22:16:33.781Z,-3.80
2019-02-22T22:26:40.092Z,-3.90
2019-02-22T22:36:45.593Z,-3.50
2019-02-22T22:46:51.156Z,-3.80
2019-02-22T22:56:56.712Z,-3.90
2019-02-22T23:07:02.253Z,-3.90
2019-02-22T23:17:07.816Z,-4.00
2019-02-22T23:27:13.279Z,-3.90
2019-02-22T23:37:18.724Z,-3.90
2019-02-22T23:47:25.241Z,-4.00
2019-02-22T23:57:30.718Z,-4.10
